Onley, Virginia
Current Conditions -  °F | °C
As of 3:15 PM on Friday 31 Oct 2014 (Local Time) from KMFV Reporting Station
Overcast Overcast  
Wind Chill: 12°   Ceiling: 3800
Heat Index: 12°   Visibility: 10mi
Dew Point:   Wind: 9mph
Humidity: 51%   Direction: 10°N
Pressure: 29.85"   Gusts: NA
Location:  37.69°N, 75.72°W
Report Text: KMFV 311915Z AUTO 01008KT 340V050 10SM BKN038 OVC046 12/02 A2985 RMK AO2
Loading
Personal Weather Stations






























Interactive Weather Map
Tropical Storm Tracking
New forecast layout! Learn more

10-Day Weather Forecast

Advertisements
Track Severe Weather on mobile